Latest Weather Observations for Mount Crawford

IDS60801

Issued at 4:41 pm CST Tuesday 20 April 2021 (issued every 10 minutes, with the page automatically refreshed every 10 minutes)

About weather observations | Map of weather stations | Latest weather observations for SA | Other Formats
Station Details ID: 023878 Name: MOUNT CRAWFORD AWS Lat: -34.73 Lon: 138.93 Height: 525.0 m
Data from the previous 72 hours. | See also: Recent months at Mount Crawford
Date/Time
CST
Temp
°C
App
Temp
°C
Dew
Point
°C
Rel
Hum
%
Delta-T
°C
Wind Press
QNH
hPa
Press
MSL
hPa
Rain since
9am
mm
Dir  Spd
km/h
Gust
km/h
Spd
kts
Gust
kts
20/04:30pm 11.6 6.7 5.3 65 3.0 S 20 28 11 15 1016.6 1015.6 3.0
20/04:00pm 11.8 6.8 6.3 69 2.7 S 22 30 12 16 1016.5 1015.5 3.0
20/03:30pm 12.3 7.2 6.1 66 3.0 SSW 22 30 12 16 1016.3 1015.3 3.0
20/03:00pm 12.9 8.5 7.6 70 2.7 SSW 20 30 11 16 1016.1 1015.1 3.0
20/02:30pm 10.9 4.8 6.6 75 2.1 SSW 28 39 15 21 1015.8 1014.8 3.0
20/02:00pm 12.3 7.8 8.4 77 2.0 SSW 22 30 12 16 1015.9 1014.9 3.0
20/01:30pm 10.9 6.0 8.5 85 1.2 S 24 33 13 18 1015.7 1014.6 3.0
20/01:00pm 10.9 6.1 9.0 88 1.0 S 24 33 13 18 1015.9 1014.9 3.0
20/12:30pm 11.2 6.6 9.8 91 0.7 S 24 33 13 18 1015.8 1014.8 3.0
20/12:00pm 11.0 5.8 10.4 96 0.3 S 28 41 15 22 1015.8 1014.8 3.0
20/11:30am 10.6 6.6 10.6 100 0.0 S 22 30 12 16 1015.8 1014.8 3.0
20/11:00am 10.9 7.4 10.9 100 0.0 S 20 30 11 16 1015.5 1014.4 3.0
20/10:30am 11.6 8.5 11.6 100 0.0 WSW 19 33 10 18 1015.1 1014.0 2.6
20/10:13am 11.4 5.7 11.2 99 0.1 WNW 32 50 17 27 1014.3 1013.3 2.0
20/10:00am 11.5 6.6 11.2 98 0.2 WNW 28 39 15 21 1014.3 1013.3 0.4
20/09:30am 10.6 6.5 10.0 96 0.3 WNW 22 33 12 18 1014.2 1013.2 0.0
20/09:00am 9.6 5.5 8.8 95 0.4 NW 20 26 11 14 1014.2 1013.2 0.0
20/08:30am 9.1 5.3 7.7 91 0.7 WNW 17 24 9 13 1014.2 1013.2 0.0
20/08:00am 9.0 4.6 7.5 90 0.7 WNW 20 30 11 16 1013.9 1012.8 0.0
20/07:30am 8.8 4.9 7.3 90 0.7 WNW 17 24 9 13 1013.7 1012.6 0.0
20/07:00am 9.0 4.2 7.3 89 0.8 NW 22 32 12 17 1013.4 1012.3 0.0
20/06:30am 8.9 4.1 7.2 89 0.8 NW 22 33 12 18 1013.4 1012.3 0.0
20/06:00am 9.2 4.5 7.6 90 0.8 NW 22 30 12 16 1013.3 1012.2 0.0
20/05:30am 9.2 4.5 7.6 90 0.8 WNW 22 30 12 16 1013.3 1012.2 0.0
20/05:00am 9.6 4.6 8.0 90 0.8 NW 24 35 13 19 1013.2 1012.1 0.0
20/04:30am 9.8 4.8 8.2 90 0.8 NW 24 35 13 19 1013.1 1012.0 0.0
20/04:00am 10.0 5.1 8.3 89 0.9 NW 24 33 13 18 1013.2 1012.1 0.0
20/03:30am 10.5 6.3 8.3 86 1.1 NW 20 28 11 15 1013.2 1012.1 0.0
20/03:00am 10.6 7.0 8.2 85 1.2 NW 17 24 9 13 1013.5 1012.4 0.0
20/02:30am 10.0 5.9 6.3 78 1.8 NNW 17 20 9 11 1013.8 1012.7 0.0
20/02:00am 10.7 6.7 6.5 75 2.0 NW 17 22 9 12 1014.3 1013.3 0.0
20/01:30am 11.2 7.1 6.3 72 2.4 NW 17 22 9 12 1014.6 1013.6 0.0
20/01:00am 11.3 7.1 5.8 69 2.6 NW 17 20 9 11 1014.8 1013.8 0.0
20/12:30am 11.5 7.7 5.8 68 2.7 NW 15 19 8 10 1014.8 1013.8 0.0
20/12:00am 11.8 8.1 6.1 68 2.8 WNW 15 19 8 10 1014.9 1013.9 0.0
 
Date/Time
CST
Temp
°C
App
Temp
°C
Dew
Point
°C
Rel
Hum
%
Delta-T
°C
Wind Press
QNH
hPa
Press
MSL
hPa
Rain since
9am
mm
Dir  Spd
km/h
Gust
km/h
Spd
kts
Gust
kts
19/11:30pm 11.7 7.9 6.0 68 2.7 W 15 17 8 9 1015.1 1014.0 0.0
19/11:00pm 11.8 8.0 5.9 67 2.8 W 15 20 8 11 1015.3 1014.2 0.0
19/10:30pm 11.9 8.5 6.0 67 2.8 WNW 13 17 7 9 1015.6 1014.5 0.0
19/10:00pm 11.3 8.2 5.6 68 2.7 W 11 15 6 8 1015.6 1014.5 0.0
19/09:30pm 11.4 7.9 5.5 67 2.8 W 13 15 7 8 1015.7 1014.6 0.0
19/09:00pm 11.6 8.5 5.7 67 2.8 W 11 15 6 8 1015.8 1014.8 0.0
19/08:30pm 11.9 8.4 5.3 64 3.1 W 13 17 7 9 1015.8 1014.8 0.0
19/08:00pm 12.1 8.2 5.3 63 3.2 W 15 20 8 11 1015.9 1014.9 0.0
19/07:30pm 12.2 7.9 5.4 63 3.2 W 17 22 9 12 1015.9 1014.9 0.0
19/07:00pm 12.3 7.9 5.0 61 3.5 W 17 20 9 11 1016.0 1015.0 0.0
19/06:30pm 12.6 7.9 5.1 60 3.6 W 19 24 10 13 1015.9 1014.9 0.0
19/06:00pm 13.4 8.1 5.1 57 4.0 W 22 32 12 17 1015.8 1014.8 0.0
19/05:30pm 14.3 8.6 5.1 54 4.4 W 24 37 13 20 1015.7 1014.6 0.0
19/05:00pm 15.2 9.2 5.4 52 4.8 W 26 39 14 21 1015.6 1014.5 0.0
19/04:30pm 15.4 9.5 5.6 52 4.8 W 26 41 14 22 1015.5 1014.4 0.0
19/04:00pm 16.3 10.1 6.2 51 5.1 W 28 41 15 22 1015.7 1014.6 0.0
19/03:30pm 16.2 10.0 6.3 52 5.0 W 28 43 15 23 1015.7 1014.6 0.0
19/03:00pm 15.5 10.1 6.5 55 4.5 W 24 35 13 19 1015.9 1014.9 0.0
19/02:30pm 15.2 10.4 7.3 59 4.0 W 22 30 12 16 1016.0 1015.0 0.0
19/02:00pm 14.6 10.2 7.6 63 3.6 WNW 20 26 11 14 1016.1 1015.1 0.0
19/01:30pm 14.8 10.2 8.3 65 3.4 W 22 35 12 19 1016.6 1015.6 0.0
19/01:00pm 14.6 10.9 8.1 65 3.3 W 17 22 9 12 1017.3 1016.2 0.0
19/12:30pm 12.8 8.8 9.1 78 1.9 W 20 30 11 16 1018.0 1017.0 0.0
19/12:00pm 12.9 9.4 8.6 75 2.2 W 17 24 9 13 1018.4 1017.4 0.0
19/11:30am 12.7 9.0 8.0 73 2.4 WNW 17 26 9 14 1018.9 1017.9 0.0
19/11:00am 12.9 8.7 7.6 70 2.7 WNW 19 26 10 14 1019.2 1018.2 0.0
19/10:30am 12.3 8.9 7.6 73 2.3 NW 15 20 8 11 1019.5 1018.5 0.0
19/10:00am 12.6 9.8 7.1 69 2.7 NNW 11 17 6 9 1019.6 1018.6 0.0
19/09:30am 11.5 9.1 7.0 74 2.2 NW 9 15 5 8 1019.9 1018.9 0.0
19/09:00am 11.8 9.4 8.8 82 1.5 NNW 11 17 6 9 1020.0 1019.0 0.0
19/08:30am 11.4 8.6 8.6 83 1.4 N 13 17 7 9 1020.0 1019.0 0.0
19/08:00am 11.2 8.4 8.4 83 1.4 NNW 13 17 7 9 1019.8 1018.8 0.0
19/07:30am 10.9 8.8 8.1 83 1.4 N 9 13 5 7 1019.4 1018.4 0.0
19/07:00am 10.9 9.1 8.0 82 1.5 N 7 9 4 5 1019.5 1018.5 0.0
19/06:30am 10.4 8.8 8.2 86 1.1 N 6 9 3 5 1019.6 1018.6 0.0
19/06:00am 10.2 8.1 8.1 87 1.0 N 9 11 5 6 1019.9 1018.9 0.0
19/05:30am 10.2 7.3 8.0 86 1.1 NNW 13 13 7 7 1019.8 1018.8 0.0
19/05:00am 10.3 7.7 7.7 84 1.3 NNW 11 15 6 8 1019.7 1018.7 0.0
19/04:30am 10.6 7.9 7.5 81 1.5 NNW 11 15 6 8 1019.7 1018.7 0.0
19/04:00am 10.7 7.7 7.8 82 1.4 NNW 13 15 7 8 1019.6 1018.6 0.0
19/03:30am 11.0 8.4 7.9 81 1.5 NW 11 17 6 9 1019.7 1018.7 0.0
19/03:00am 10.9 8.7 8.0 82 1.4 NW 9 15 5 8 1019.8 1018.8 0.0
19/02:30am 10.9 8.3 7.8 81 1.5 NNW 11 13 6 7 1020.2 1019.2 0.0
19/02:00am 11.0 8.7 7.3 78 1.8 NW 9 13 5 7 1020.5 1019.5 0.0
19/01:30am 11.0 8.6 6.9 76 2.0 WNW 9 13 5 7 1020.9 1020.0 0.0
19/01:00am 11.3 8.5 6.8 74 2.2 WSW 11 17 6 9 1021.2 1020.2 0.0
19/12:30am 11.5 8.6 6.6 72 2.4 W 11 15 6 8 1021.3 1020.3 0.0
19/12:00am 11.6 8.8 6.9 73 2.3 W 11 15 6 8 1021.7 1020.7 0.0
 
Date/Time
CST
Temp
°C
App
Temp
°C
Dew
Point
°C
Rel
Hum
%
Delta-T
°C
Wind Press
QNH
hPa
Press
MSL
hPa
Rain since
9am
mm
Dir  Spd
km/h
Gust
km/h
Spd
kts
Gust
kts
18/11:30pm 11.4 8.7 7.5 77 1.9 W 11 15 6 8 1022.0 1021.0 0.0
18/11:00pm 11.1 8.4 7.4 78 1.8 W 11 15 6 8 1022.2 1021.2 0.0
18/10:30pm 10.7 8.0 7.4 80 1.6 W 11 13 6 7 1022.4 1021.5 0.0
18/10:00pm 11.2 8.2 7.5 78 1.8 WSW 13 15 7 8 1022.3 1021.3 0.0
18/09:30pm 11.2 8.2 7.5 78 1.8 WSW 13 15 7 8 1022.5 1021.6 0.0
18/09:00pm 11.1 7.9 6.8 75 2.1 WSW 13 15 7 8 1022.7 1021.8 0.0
18/08:30pm 11.4 8.0 6.1 70 2.5 WSW 13 15 7 8 1022.7 1021.8 0.0
18/08:00pm 11.8 8.8 5.9 67 2.8 SW 11 13 6 7 1023.0 1022.1 0.0
18/07:30pm 12.4 9.8 6.0 65 3.1 WSW 9 13 5 7 1023.4 1022.4 0.0
18/07:00pm 12.7 10.2 6.5 66 3.0 WSW 9 13 5 7 1023.4 1022.4 0.0
18/06:30pm 12.8 10.0 6.8 67 3.0 WSW 11 15 6 8 1023.2 1022.2 0.0
18/06:00pm 12.9 10.4 6.7 66 3.0 SW 9 15 5 8 1022.9 1022.0 0.0
18/05:30pm 13.2 9.9 6.5 64 3.3 WSW 13 20 7 11 1022.9 1022.0 0.0
18/05:00pm 13.5 10.8 7.5 67 3.0 SW 11 17 6 9 1022.9 1022.0 0.0
18/04:30pm 13.6 10.2 7.8 68 2.9 SSW 15 19 8 10 1022.9 1022.0 0.0
18/04:00pm 13.3 10.3 7.5 68 2.9 SSW 13 17 7 9 1022.9 1022.0 0.0
18/03:30pm 13.5 10.9 7.7 68 2.9 SW 11 19 6 10 1023.2 1022.2 0.0
18/03:00pm 14.4 11.0 6.0 57 4.1 WSW 13 22 7 12 1023.0 1022.1 0.0
18/02:30pm 14.7 11.2 7.3 61 3.7 W 15 22 8 12 1023.2 1022.2 0.0
18/02:00pm 14.4 10.0 6.7 60 3.8 W 19 28 10 15 1023.3 1022.3 0.0
18/01:30pm 15.8 12.8 7.6 58 4.2 WSW 13 20 7 11 1023.6 1022.6 0.0
18/01:00pm 14.5 10.5 6.8 60 3.9 W 17 24 9 13 1024.0 1023.1 0.0
18/12:30pm 13.6 9.5 8.0 69 2.8 W 19 30 10 16 1024.4 1023.5 0.0
18/12:00pm 14.1 11.1 7.6 65 3.3 WSW 13 24 7 13 1024.8 1023.9 0.0
18/11:30am 13.6 9.5 8.0 69 2.8 W 19 26 10 14 1025.3 1024.3 0.0
18/11:00am 13.6 10.3 8.0 69 2.9 WSW 15 24 8 13 1025.4 1024.4 0.0
18/10:30am 13.2 11.3 8.9 75 2.2 WSW 9 13 5 7 1025.6 1024.6 0.0
18/10:00am 12.5 10.5 8.8 78 1.9 W 9 17 5 9 1025.9 1025.0 0.0
18/09:30am 11.7 9.6 9.9 89 0.9 WNW 11 15 6 8 1026.1 1025.2 0.0
18/09:00am 11.3 8.9 10.0 92 0.7 W 13 17 7 9 1026.1 1025.2 0.0
18/08:30am 10.8 8.3 9.7 93 0.6 W 13 15 7 8 1026.1 1025.2 0.0
18/08:00am 10.5 8.8 10.0 97 0.3 WNW 9 13 5 7 1026.1 1025.2 0.0
18/07:30am 10.0 7.8 9.4 96 0.3 NNW 11 15 6 8 1025.8 1024.9 0.0
18/07:00am 9.8 7.9 9.2 96 0.3 WNW 9 13 5 7 1025.7 1024.8 0.0
18/06:30am 9.8 7.9 9.0 95 0.4 NW 9 11 5 6 1025.5 1024.5 0.0
18/06:00am 9.8 7.8 8.7 93 0.6 WNW 9 11 5 6 1025.4 1024.4 0.0
18/05:30am 10.1 8.2 8.9 92 0.6 WSW 9 11 5 6 1025.5 1024.5 0.0
18/05:00am 9.9 8.6 9.1 95 0.4 NW 6 7 3 4 1025.5 1024.5 0.0
18/04:30am 10.0 8.2 9.4 96 0.3 WNW 9 13 5 7 1025.6 1024.6 0.0
18/04:00am 10.2 8.4 9.6 96 0.3 WNW 9 13 5 7 1025.5 1024.5 0.0
18/03:30am 10.5 8.7 9.4 93 0.6 WNW 9 11 5 6 1025.6 1024.6 0.0
18/03:00am 10.5 8.6 8.9 90 0.8 WNW 9 13 5 7 1025.7 1024.8 0.0
18/02:30am 10.6 9.0 8.7 88 1.0 WSW 7 9 4 5 1025.7 1024.8 0.0
18/02:00am 10.7 9.2 8.6 87 1.1 WSW 6 11 3 6 1026.0 1025.1 0.0
18/01:30am 10.7 8.7 8.5 86 1.1 WSW 9 11 5 6 1026.2 1025.3 0.0
18/01:00am 10.8 9.1 8.2 84 1.3 WSW 7 9 4 5 1026.4 1025.5 0.0
18/12:30am 10.9 8.8 8.1 83 1.4 W 9 11 5 6 1026.5 1025.6 0.0
18/12:00am 11.1 8.7 8.5 84 1.3 WSW 11 15 6 8 1026.4 1025.5 0.0
 
Date/Time
CST
Temp
°C
App
Temp
°C
Dew
Point
°C
Rel
Hum
%
Delta-T
°C
Wind Press
QNH
hPa
Press
MSL
hPa
Rain since
9am
mm
Dir  Spd
km/h
Gust
km/h
Spd
kts
Gust
kts
17/11:30pm 11.0 8.4 7.7 80 1.6 WSW 11 15 6 8 1026.6 1025.7 0.0
17/11:00pm 10.8 7.8 7.5 80 1.6 WSW 13 15 7 8 1026.9 1026.0 0.0
17/10:30pm 10.7 7.6 7.2 79 1.7 SW 13 17 7 9 1027.1 1026.2 0.0
17/10:00pm 11.2 8.0 6.9 75 2.1 SSE 13 17 7 9 1027.1 1026.2 0.0
17/09:30pm 11.3 8.2 7.2 76 2.0 SSW 13 15 7 8 1027.3 1026.3 0.0
17/09:00pm 11.5 8.4 7.2 75 2.1 SSW 13 15 7 8 1027.4 1026.5 0.0
17/08:30pm 11.6 8.5 7.1 74 2.2 SSW 13 17 7 9 1027.4 1026.5 0.0
17/08:00pm 11.6 8.5 7.1 74 2.2 SSW 13 15 7 8 1027.4 1026.5 0.0
17/07:30pm 11.7 8.2 7.0 73 2.3 SSW 15 19 8 10 1027.5 1026.6 0.0
17/07:00pm 11.4 9.0 6.9 74 2.2 SW 9 11 5 6 1027.4 1026.5 0.0
17/06:30pm 11.7 8.5 6.8 72 2.4 SW 13 17 7 9 1027.3 1026.3 0.0
17/06:00pm 12.1 8.5 6.8 70 2.6 WSW 15 24 8 13 1026.9 1026.0 0.0
17/05:30pm 13.3 10.0 6.4 63 3.4 WSW 13 19 7 10 1026.6 1025.7 0.0
17/05:00pm 15.0 11.0 5.0 51 4.8 SSW 15 22 8 12 1026.4 1025.5 0.0

Other formats

Comma delimited format used in spreadsheet applications
http://www.bom.gov.au/fwo/IDS60801/IDS60801.94678.axf

JavaScript Object Notation format (JSON) in row-major order
http://www.bom.gov.au/fwo/IDS60801/IDS60801.94678.json

Data quality

Most of these data are generated automatically and are frequently updated. Quality checks on data are not normally performed. It is possible for incorrect values to appear. Refer to information at About Latest Weather Observations and please check the disclaimer before using these data.